Jordan, Montana
Current Conditions -  °F | °C
As of 6:44 PM on Thursday 27 Nov 2014 (Local Time) from KGGW Reporting Station
Haze Haze  
Wind Chill: 14°   Ceiling: 200
Heat Index: 25°   Visibility: 2.5mi
Dew Point: 22°   Wind: 12mph
Humidity: 88%   Direction: 80°E
Pressure: 29.75"   Gusts: NA
Location:  47.32°N, 106.91°W
Report Text: KGGW 280144Z AUTO 08010KT 2 1/2SM BR BKN002 M04/M06 A2975 RMK AO2 I1000 T10391056
Loading
Personal Weather Stations






























Interactive Weather Map New forecast layout! Learn more

10-Day Weather Forecast

Advertisements
Track Severe Weather on mobile